createdAt,value
2022-12-26T00:01:57.230Z,100347.25
2022-12-26T00:04:49.352Z,100347.66
2022-12-26T00:07:11.661Z,100346.84
2022-12-26T00:09:38.722Z,100348.28
2022-12-26T00:12:06.294Z,100353.28
2022-12-26T00:14:33.405Z,100343.06
2022-12-26T00:17:00.541Z,100344.53
2022-12-26T00:19:27.677Z,100340.94
2022-12-26T00:21:54.796Z,100340.25
2022-12-26T00:24:21.951Z,100339.31
2022-12-26T00:26:49.163Z,100329.28
2022-12-26T00:29:16.320Z,100316.28
2022-12-26T00:31:43.471Z,100306.69
2022-12-26T00:34:10.954Z,100298.44
2022-12-26T00:36:37.973Z,100303.78
2022-12-26T00:39:05.024Z,100311.38
2022-12-26T00:41:32.865Z,100314.81
2022-12-26T00:44:00.085Z,100311.59
2022-12-26T00:46:28.518Z,100311.63
2022-12-26T00:48:56.027Z,100297.66
2022-12-26T00:51:23.192Z,100305.91
2022-12-26T00:53:50.397Z,100294.44
2022-12-26T00:56:17.823Z,100293.38
2022-12-26T00:58:45.011Z,100297.66
2022-12-26T01:01:23.414Z,100298.72
2022-12-26T01:03:51.559Z,100291.97
2022-12-26T01:06:19.123Z,100279.53
2022-12-26T01:08:46.350Z,100274.09
2022-12-26T01:11:36.324Z,100267.94
2022-12-26T01:14:04.435Z,100267.56
2022-12-26T01:16:31.637Z,100267.56
2022-12-26T01:18:58.775Z,100269.72
2022-12-26T01:21:25.789Z,100270.69
2022-12-26T01:23:52.924Z,100275.66
2022-12-26T01:26:20.244Z,100262.53
2022-12-26T01:28:53.429Z,100275.44
2022-12-26T01:31:21.984Z,100282.78
2022-12-26T01:33:49.467Z,100269.84
2022-12-26T01:36:18.412Z,100266.66
2022-12-26T01:38:46.347Z,100271.41
2022-12-26T01:41:17.340Z,100267.03
2022-12-26T01:43:53.838Z,100254.81
2022-12-26T01:46:45.042Z,100250.31
2022-12-26T01:49:33.886Z,100257.03
2022-12-26T01:52:09.621Z,100263.09
2022-12-26T01:54:42.931Z,100247.00
2022-12-26T01:57:27.504Z,100246.28
2022-12-26T01:59:57.392Z,100252.53
2022-12-26T02:02:29.122Z,100241.28
2022-12-26T02:05:16.481Z,100243.22
2022-12-26T02:07:47.072Z,100248.88
2022-12-26T02:10:22.160Z,100238.00
2022-12-26T02:12:50.625Z,100243.44
2022-12-26T02:15:18.820Z,100254.00
2022-12-26T02:17:48.951Z,100252.94
2022-12-26T02:20:40.093Z,100245.69
2022-12-26T02:24:31.292Z,100249.72
2022-12-26T02:27:24.595Z,100239.63
2022-12-26T02:30:28.697Z,100231.34
2022-12-26T02:33:29.011Z,100240.22
2022-12-26T02:36:31.458Z,100235.84
2022-12-26T02:40:01.795Z,100220.78
2022-12-26T02:43:08.909Z,100227.56
2022-12-26T02:46:31.526Z,100226.22
2022-12-26T02:50:07.639Z,100216.19
2022-12-26T02:53:24.281Z,100198.03
2022-12-26T02:56:24.473Z,100219.72
2022-12-26T03:00:07.780Z,100215.22
2022-12-26T03:03:18.390Z,100233.94
2022-12-26T03:06:38.665Z,100220.66
2022-12-26T03:09:41.153Z,100229.44
2022-12-26T03:13:13.442Z,100219.84
2022-12-26T03:16:32.405Z,100224.00
2022-12-26T03:19:10.062Z,100236.78
2022-12-26T03:21:45.389Z,100234.31
2022-12-26T03:24:16.986Z,100220.78
2022-12-26T03:26:54.451Z,100219.00
2022-12-26T03:29:42.530Z,100217.00
2022-12-26T03:32:13.054Z,100228.94
2022-12-26T03:34:45.023Z,100232.53
2022-12-26T03:37:48.404Z,100233.50
2022-12-26T03:41:10.918Z,100246.53
2022-12-26T03:44:17.176Z,100242.97
2022-12-26T03:48:04.386Z,100231.44
2022-12-26T03:51:10.698Z,100223.16
2022-12-26T03:54:19.334Z,100219.22
2022-12-26T03:57:31.340Z,100227.66
2022-12-26T04:00:30.411Z,100237.50
2022-12-26T04:03:28.879Z,100238.44
2022-12-26T04:06:17.180Z,100242.47
2022-12-26T04:09:33.330Z,100223.38
2022-12-26T04:12:20.607Z,100238.94
2022-12-26T04:15:30.258Z,100259.56
2022-12-26T04:18:33.818Z,100253.38
2022-12-26T04:21:52.386Z,100251.25
2022-12-26T04:24:48.655Z,100249.59
2022-12-26T04:27:40.595Z,100250.06
2022-12-26T04:30:27.682Z,100249.34
2022-12-26T04:33:24.207Z,100251.72
2022-12-26T04:36:23.027Z,100250.25
2022-12-26T04:39:18.239Z,100246.47
2022-12-26T04:42:05.296Z,100233.16
2022-12-26T04:44:35.183Z,100247.97
2022-12-26T04:47:02.238Z,100250.72
2022-12-26T04:49:47.825Z,100256.03
2022-12-26T04:52:15.677Z,100269.22
2022-12-26T04:54:43.245Z,100272.53
2022-12-26T04:57:11.701Z,100270.88
2022-12-26T04:59:38.735Z,100274.44
2022-12-26T05:02:24.534Z,100270.53
2022-12-26T05:05:10.321Z,100266.84
2022-12-26T05:07:56.520Z,100268.88
2022-12-26T05:10:28.730Z,100277.66
2022-12-26T05:12:56.114Z,100274.34
2022-12-26T05:15:23.519Z,100272.78
2022-12-26T05:18:09.054Z,100269.94
2022-12-26T05:20:54.796Z,100284.44
2022-12-26T05:23:45.279Z,100281.72
2022-12-26T05:26:40.621Z,100288.59
2022-12-26T05:29:08.081Z,100290.63
2022-12-26T05:31:36.835Z,100297.50
2022-12-26T05:34:12.090Z,100296.78
2022-12-26T05:36:51.475Z,100291.06
2022-12-26T05:39:19.041Z,100292.63
2022-12-26T05:41:46.180Z,100300.72
2022-12-26T05:44:13.412Z,100302.34
2022-12-26T05:46:42.544Z,100304.59
2022-12-26T05:49:10.330Z,100303.78
2022-12-26T05:51:37.581Z,100296.06
2022-12-26T05:54:05.540Z,100296.56
2022-12-26T05:56:32.677Z,100303.78
2022-12-26T05:59:01.873Z,100300.56
2022-12-26T06:01:30.717Z,100303.78
2022-12-26T06:04:00.586Z,100305.34
2022-12-26T06:06:28.345Z,100308.78
2022-12-26T06:08:57.397Z,100306.06
2022-12-26T06:11:26.989Z,100302.72
2022-12-26T06:13:55.004Z,100308.91
2022-12-26T06:16:22.484Z,100312.22
2022-12-26T06:18:49.660Z,100319.34
2022-12-26T06:21:20.230Z,100321.84
2022-12-26T06:23:48.447Z,100324.34
2022-12-26T06:26:16.880Z,100311.41
2022-12-26T06:28:45.263Z,100309.97
2022-12-26T06:31:20.448Z,100310.78
2022-12-26T06:33:57.967Z,100303.47
2022-12-26T06:36:27.493Z,100301.06
2022-12-26T06:38:55.440Z,100303.91
2022-12-26T06:41:24.968Z,100308.19
2022-12-26T06:43:52.968Z,100311.03
2022-12-26T06:46:24.254Z,100326.47
2022-12-26T06:48:52.222Z,100331.91
2022-12-26T06:51:26.884Z,100341.41
2022-12-26T06:53:54.656Z,100353.06
2022-12-26T06:56:26.614Z,100359.47
2022-12-26T06:58:59.925Z,100366.13
2022-12-26T07:01:30.567Z,100362.78
2022-12-26T07:03:58.909Z,100375.97
2022-12-26T07:06:35.465Z,100371.69
2022-12-26T07:09:09.840Z,100366.59
2022-12-26T07:11:41.954Z,100369.91
2022-12-26T07:14:09.657Z,100375.97
2022-12-26T07:16:39.480Z,100386.06
2022-12-26T07:19:07.376Z,100387.00
2022-12-26T07:21:40.111Z,100376.31
2022-12-26T07:24:22.360Z,100377.97
2022-12-26T07:26:50.147Z,100370.13
2022-12-26T07:29:17.919Z,100374.19
2022-12-26T07:31:45.750Z,100374.28
2022-12-26T07:34:12.912Z,100384.84
2022-12-26T07:36:41.487Z,100384.84
2022-12-26T07:39:08.794Z,100386.28
2022-12-26T07:41:54.610Z,100386.53
2022-12-26T07:44:21.640Z,100393.41
2022-12-26T07:46:49.056Z,100388.41
2022-12-26T07:49:16.742Z,100385.47
2022-12-26T07:51:44.001Z,100386.63
2022-12-26T07:54:12.115Z,100383.47
2022-12-26T07:56:41.302Z,100391.97
2022-12-26T07:59:16.370Z,100405.41
2022-12-26T08:01:44.508Z,100406.25
2022-12-26T08:04:13.509Z,100407.78
2022-12-26T08:06:40.616Z,100405.53
2022-12-26T08:09:17.933Z,100409.81
2022-12-26T08:11:45.462Z,100402.69
2022-12-26T08:14:14.146Z,100401.03
2022-12-26T08:16:41.331Z,100397.81
2022-12-26T08:19:08.712Z,100408.13
2022-12-26T08:21:35.976Z,100414.31
2022-12-26T08:24:03.175Z,100414.31
2022-12-26T08:26:30.261Z,100408.75
2022-12-26T08:28:58.141Z,100418.34
2022-12-26T08:33:57.735Z,100408.47
2022-12-26T08:36:25.329Z,100418.09
2022-12-26T08:38:52.998Z,100412.75
2022-12-26T08:41:20.460Z,100407.53
2022-12-26T08:46:40.222Z,100409.91
2022-12-26T08:49:07.373Z,100413.34
2022-12-26T08:51:36.479Z,100416.81
2022-12-26T08:54:03.873Z,100421.19
2022-12-26T08:56:31.481Z,100422.03
2022-12-26T08:58:58.631Z,100414.78
2022-12-26T09:01:29.780Z,100419.31
2022-12-26T09:04:02.257Z,100414.53
2022-12-26T09:06:34.281Z,100410.03
2022-12-26T09:09:06.187Z,100416.44
2022-12-26T09:11:33.727Z,100421.19
2022-12-26T09:14:04.231Z,100430.09
2022-12-26T09:16:43.016Z,100437.94
2022-12-26T09:19:18.908Z,100443.66
2022-12-26T09:21:48.398Z,100442.59
2022-12-26T09:24:18.462Z,100454.22
2022-12-26T09:26:45.912Z,100458.63
2022-12-26T09:29:15.503Z,100451.63
2022-12-26T09:31:42.626Z,100445.09
2022-12-26T09:34:09.811Z,100443.31
2022-12-26T09:36:39.171Z,100453.66
2022-12-26T09:39:07.506Z,100444.25
2022-12-26T09:42:06.028Z,100445.22
2022-12-26T09:45:15.127Z,100439.88
2022-12-26T09:48:19.492Z,100444.84
2022-12-26T09:50:51.607Z,100442.81
2022-12-26T09:53:34.972Z,100434.41
2022-12-26T09:56:23.780Z,100441.53
2022-12-26T09:59:17.821Z,100429.63
2022-12-26T10:01:50.351Z,100444.69
2022-12-26T10:04:29.886Z,100454.94
2022-12-26T10:07:42.618Z,100452.09
2022-12-26T10:10:45.694Z,100445.69
2022-12-26T10:13:48.043Z,100450.66
2022-12-26T10:17:06.184Z,100458.72
2022-12-26T10:19:54.789Z,100461.91
2022-12-26T10:23:45.427Z,100470.34
2022-12-26T10:26:36.094Z,100474.66
2022-12-26T10:29:08.965Z,100472.03
2022-12-26T10:31:54.021Z,100474.88
2022-12-26T10:34:36.518Z,100473.19
2022-12-26T10:37:34.987Z,100464.41
2022-12-26T10:40:39.188Z,100464.66
2022-12-26T10:43:30.255Z,100467.41
2022-12-26T10:46:06.043Z,100461.59
2022-12-26T10:48:33.472Z,100460.88
2022-12-26T10:51:00.520Z,100454.22
2022-12-26T10:53:27.889Z,100456.94
2022-12-26T10:55:57.096Z,100451.72
2022-12-26T10:58:35.845Z,100459.69
2022-12-26T11:01:40.101Z,100466.44
2022-12-26T11:07:17.544Z,100457.19
2022-12-26T11:09:46.113Z,100454.84
2022-12-26T11:12:47.200Z,100460.91
2022-12-26T11:15:39.464Z,100463.63
2022-12-26T11:18:46.477Z,100467.78
2022-12-26T11:21:19.519Z,100473.25
2022-12-26T11:23:52.631Z,100466.56
2022-12-26T11:26:29.698Z,100474.41
2022-12-26T11:29:25.658Z,100461.47
2022-12-26T11:32:04.884Z,100466.69
2022-12-26T11:34:46.419Z,100468.72
2022-12-26T11:37:34.352Z,100463.09
2022-12-26T11:40:01.665Z,100452.09
2022-12-26T11:42:28.963Z,100453.50
2022-12-26T11:44:57.836Z,100453.03
2022-12-26T11:47:29.888Z,100455.66
2022-12-26T11:50:12.112Z,100464.56
2022-12-26T11:52:56.900Z,100472.97
2022-12-26T11:55:24.241Z,100469.56
2022-12-26T11:58:17.982Z,100479.41
2022-12-26T12:00:50.908Z,100485.94
2022-12-26T12:03:50.057Z,100481.56
2022-12-26T12:06:46.353Z,100475.63
2022-12-26T12:09:41.680Z,100478.22
2022-12-26T12:12:58.091Z,100474.44
2022-12-26T12:16:12.314Z,100464.94
2022-12-26T12:19:51.087Z,100468.97
2022-12-26T12:22:45.007Z,100469.69
2022-12-26T12:26:11.692Z,100461.63
2022-12-26T12:29:34.429Z,100454.31
2022-12-26T12:33:06.347Z,100454.31
2022-12-26T12:36:00.542Z,100443.28
2022-12-26T12:39:00.868Z,100445.19
2022-12-26T12:42:08.935Z,100457.03
2022-12-26T12:46:02.059Z,100455.97
2022-12-26T12:49:07.669Z,100433.78
2022-12-26T12:52:09.410Z,100429.53
2022-12-26T12:55:21.404Z,100434.28
2022-12-26T12:58:07.474Z,100445.94
2022-12-26T13:00:56.010Z,100445.34
2022-12-26T13:03:48.874Z,100441.66
2022-12-26T13:06:46.324Z,100440.56
2022-12-26T13:09:42.687Z,100445.94
2022-12-26T13:12:36.935Z,100439.06
2022-12-26T13:15:22.401Z,100438.78
2022-12-26T13:18:07.838Z,100444.50
2022-12-26T13:20:58.601Z,100439.06
2022-12-26T13:23:51.427Z,100433.22
2022-12-26T13:26:31.068Z,100439.13
2022-12-26T13:29:26.084Z,100438.88
2022-12-26T13:31:53.387Z,100448.88
2022-12-26T13:34:21.447Z,100447.31
2022-12-26T13:36:55.924Z,100444.94
2022-12-26T13:39:26.222Z,100444.47
2022-12-26T13:42:29.245Z,100429.75
2022-12-26T13:45:16.361Z,100434.84
2022-12-26T13:47:43.495Z,100440.09
2022-12-26T13:50:56.623Z,100449.69
2022-12-26T13:53:33.997Z,100448.25
2022-12-26T13:56:30.863Z,100448.38
2022-12-26T13:59:32.617Z,100448.72
2022-12-26T14:03:17.503Z,100445.88
2022-12-26T14:05:57.157Z,100452.66
2022-12-26T14:09:12.330Z,100455.38
2022-12-26T14:12:35.219Z,100452.88
2022-12-26T14:15:28.660Z,100459.16
2022-12-26T14:18:45.181Z,100462.16
2022-12-26T14:21:46.798Z,100466.66
2022-12-26T14:24:49.290Z,100462.75
2022-12-26T14:27:57.891Z,100465.81
2022-12-26T14:31:08.410Z,100476.88
2022-12-26T14:34:06.908Z,100473.41
2022-12-26T14:37:23.438Z,100485.25
2022-12-26T14:40:35.457Z,100477.75
2022-12-26T14:43:34.892Z,100472.88
2022-12-26T14:46:26.302Z,100477.47
2022-12-26T14:48:59.678Z,100475.69
2022-12-26T14:51:37.369Z,100469.19
2022-12-26T14:54:37.663Z,100479.84
2022-12-26T14:57:44.319Z,100477.34
2022-12-26T15:00:23.185Z,100475.66
2022-12-26T15:03:24.687Z,100465.94
2022-12-26T15:05:54.215Z,100464.78
2022-12-26T15:09:32.126Z,100466.19
2022-12-26T15:12:23.301Z,100463.16
2022-12-26T15:15:47.758Z,100461.81
2022-12-26T15:19:31.111Z,100471.19
2022-12-26T15:22:09.441Z,100467.66
2022-12-26T15:25:19.298Z,100471.69
2022-12-26T15:28:32.285Z,100473.22
2022-12-26T15:31:45.268Z,100466.00
2022-12-26T15:34:37.401Z,100468.50
2022-12-26T15:37:34.519Z,100463.41
2022-12-26T15:40:24.483Z,100449.50
2022-12-26T15:43:39.798Z,100447.34
2022-12-26T15:46:45.710Z,100445.81
2022-12-26T15:50:00.338Z,100448.84
2022-12-26T15:53:02.073Z,100447.28
2022-12-26T15:56:22.165Z,100449.31
2022-12-26T15:59:42.719Z,100447.91
2022-12-26T16:02:28.084Z,100447.53
2022-12-26T16:05:37.651Z,100447.44
2022-12-26T16:08:51.789Z,100452.03
2022-12-26T16:11:50.312Z,100449.44
2022-12-26T16:14:39.406Z,100453.53
2022-12-26T16:17:13.472Z,100455.19
2022-12-26T16:19:43.743Z,100457.22
2022-12-26T16:22:48.800Z,100462.91
2022-12-26T16:25:26.051Z,100464.47
2022-12-26T16:27:59.990Z,100461.53
2022-12-26T16:30:35.822Z,100465.63
2022-12-26T16:33:04.320Z,100463.63
2022-12-26T16:35:39.942Z,100460.81
2022-12-26T16:38:18.168Z,100464.47
2022-12-26T16:40:51.460Z,100468.53
2022-12-26T16:43:18.496Z,100475.63
2022-12-26T16:45:51.171Z,100471.59
2022-12-26T16:48:23.876Z,100471.84
2022-12-26T16:51:00.617Z,100473.75
2022-12-26T16:53:40.169Z,100479.44
2022-12-26T16:56:33.598Z,100487.25
2022-12-26T16:59:18.728Z,100495.81
2022-12-26T17:02:00.488Z,100499.38
2022-12-26T17:04:30.315Z,100507.66
2022-12-26T17:07:06.283Z,100515.03
2022-12-26T17:09:49.566Z,100532.69
2022-12-26T17:12:27.902Z,100520.91
2022-12-26T17:14:56.946Z,100514.25
2022-12-26T17:17:23.784Z,100523.03
2022-12-26T17:19:54.902Z,100523.25
2022-12-26T17:22:37.290Z,100522.84
2022-12-26T17:25:28.029Z,100520.34
2022-12-26T17:28:17.761Z,100528.13
2022-12-26T17:30:53.265Z,100528.88
2022-12-26T17:33:28.665Z,100535.88
2022-12-26T17:38:51.998Z,100545.91
2022-12-26T17:41:19.402Z,100549.78
2022-12-26T17:43:47.919Z,100543.66
2022-12-26T17:46:17.943Z,100549.69
2022-12-26T17:48:45.719Z,100542.81
2022-12-26T17:51:17.897Z,100549.78
2022-12-26T17:53:51.292Z,100550.75
2022-12-26T17:56:24.206Z,100542.19
2022-12-26T17:58:51.568Z,100552.94
2022-12-26T18:01:21.677Z,100558.03
2022-12-26T18:03:51.994Z,100560.31
2022-12-26T18:06:19.894Z,100559.69
2022-12-26T18:08:47.085Z,100566.78
2022-12-26T18:11:15.125Z,100568.88
2022-12-26T18:13:43.124Z,100562.94
2022-12-26T18:16:18.901Z,100564.81
2022-12-26T18:18:48.403Z,100570.75
2022-12-26T18:21:16.716Z,100577.84
2022-12-26T18:23:44.343Z,100578.06
2022-12-26T18:26:32.066Z,100577.00
2022-12-26T18:28:59.188Z,100585.56
2022-12-26T18:31:27.892Z,100585.16
2022-12-26T18:33:55.881Z,100587.94
2022-12-26T18:36:31.657Z,100592.97
2022-12-26T18:38:58.991Z,100591.06
2022-12-26T18:41:28.057Z,100593.41
2022-12-26T18:43:55.180Z,100588.66
2022-12-26T18:46:26.115Z,100597.59
2022-12-26T18:48:56.541Z,100599.06
2022-12-26T18:51:25.881Z,100600.91
2022-12-26T18:53:53.094Z,100598.84
2022-12-26T18:56:23.140Z,100603.44
2022-12-26T18:58:57.579Z,100616.31
2022-12-26T19:01:25.872Z,100614.00
2022-12-26T19:03:53.967Z,100609.72
2022-12-26T19:06:28.969Z,100623.53
2022-12-26T19:08:57.101Z,100631.59
2022-12-26T19:11:24.582Z,100639.75
2022-12-26T19:13:51.695Z,100641.75
2022-12-26T19:16:19.283Z,100652.75
2022-12-26T19:18:46.379Z,100665.28
2022-12-26T19:21:16.625Z,100671.06
2022-12-26T19:23:47.690Z,100669.78
2022-12-26T19:26:19.150Z,100679.88
2022-12-26T19:28:55.565Z,100677.94
2022-12-26T19:31:23.606Z,100678.88
2022-12-26T19:33:50.966Z,100683.63
2022-12-26T19:36:18.236Z,100696.13
2022-12-26T19:38:45.443Z,100691.31
2022-12-26T19:41:14.961Z,100683.44
2022-12-26T19:43:42.803Z,100693.34
2022-12-26T19:46:17.015Z,100689.66
2022-12-26T19:48:44.603Z,100702.88
2022-12-26T19:51:15.872Z,100704.56
2022-12-26T19:53:44.782Z,100716.34
2022-12-26T19:56:28.254Z,100729.19
2022-12-26T19:58:56.907Z,100732.81
2022-12-26T20:01:31.756Z,100735.22
2022-12-26T20:04:02.751Z,100750.53
2022-12-26T20:06:33.614Z,100746.28
2022-12-26T20:09:09.485Z,100754.34
2022-12-26T20:11:43.011Z,100759.78
2022-12-26T20:14:19.120Z,100762.13
2022-12-26T20:17:08.782Z,100773.44
2022-12-26T20:19:37.022Z,100787.84
2022-12-26T20:22:05.721Z,100783.34
2022-12-26T20:24:33.761Z,100794.22
2022-12-26T20:27:01.241Z,100798.44
2022-12-26T20:29:28.409Z,100789.31
2022-12-26T20:31:55.479Z,100798.44
2022-12-26T20:34:23.198Z,100801.63
2022-12-26T20:36:50.386Z,100797.75
2022-12-26T20:39:19.593Z,100808.50
2022-12-26T20:41:47.248Z,100809.66
2022-12-26T20:44:16.431Z,100805.50
2022-12-26T20:46:44.818Z,100807.16
2022-12-26T20:49:12.593Z,100800.63
2022-12-26T20:51:43.991Z,100802.63
2022-12-26T20:54:14.058Z,100809.84
2022-12-26T20:56:42.209Z,100815.13
2022-12-26T20:59:10.232Z,100813.38
2022-12-26T21:01:39.370Z,100825.41
2022-12-26T21:04:08.047Z,100824.78
2022-12-26T21:06:38.025Z,100815.91
2022-12-26T21:09:09.269Z,100825.78
2022-12-26T21:11:39.972Z,100830.38
2022-12-26T21:14:21.920Z,100834.41
2022-12-26T21:16:57.056Z,100831.19
2022-12-26T21:19:28.129Z,100844.34
2022-12-26T21:21:56.503Z,100844.41
2022-12-26T21:24:29.395Z,100856.84
2022-12-26T21:26:57.261Z,100852.19
2022-12-26T21:29:33.242Z,100847.56
2022-12-26T21:32:03.065Z,100851.09
2022-12-26T21:34:33.010Z,100856.91
2022-12-26T21:37:19.284Z,100869.09
2022-12-26T21:39:47.432Z,100884.84
2022-12-26T21:42:14.605Z,100879.66
2022-12-26T21:44:41.797Z,100873.09
2022-12-26T21:47:09.228Z,100879.47
2022-12-26T21:49:37.291Z,100881.16
2022-12-26T21:52:06.316Z,100901.28
2022-12-26T21:54:52.527Z,100902.81
2022-12-26T21:57:20.782Z,100906.66
2022-12-26T21:59:57.071Z,100917.69
2022-12-26T22:02:53.839Z,100919.91
2022-12-26T22:05:28.111Z,100917.69
2022-12-26T22:08:01.605Z,100929.50
2022-12-26T22:10:51.387Z,100921.41
2022-12-26T22:13:20.427Z,100930.44
2022-12-26T22:16:05.358Z,100929.59
2022-12-26T22:18:46.599Z,100929.44
2022-12-26T22:21:21.560Z,100944.59
2022-12-26T22:23:51.313Z,100941.22
2022-12-26T22:26:21.477Z,100946.59
2022-12-26T22:28:49.851Z,100945.22
2022-12-26T22:31:25.505Z,100968.94
2022-12-26T22:34:03.464Z,100980.47
2022-12-26T22:36:32.319Z,100979.63
2022-12-26T22:39:00.416Z,101001.38
2022-12-26T22:41:28.736Z,100999.22
2022-12-26T22:43:56.260Z,101002.44
2022-12-26T22:46:23.490Z,101003.44
2022-12-26T22:48:51.044Z,101004.50
2022-12-26T22:51:23.004Z,101012.22
2022-12-26T22:53:54.263Z,101016.47
2022-12-26T22:56:21.379Z,101016.47
2022-12-26T22:58:54.729Z,101024.25
2022-12-26T23:01:22.994Z,101018.59
2022-12-26T23:03:50.316Z,101022.50
2022-12-26T23:06:24.730Z,101033.94
2022-12-26T23:08:56.815Z,101029.72
2022-12-26T23:11:34.465Z,101033.09
2022-12-26T23:14:05.908Z,101028.06
2022-12-26T23:16:56.238Z,101038.72
2022-12-26T23:20:05.320Z,101043.78
2022-12-26T23:22:33.345Z,101047.66
2022-12-26T23:25:00.462Z,101049.72
2022-12-26T23:27:46.045Z,101045.91
2022-12-26T23:30:20.015Z,101038.41
2022-12-26T23:32:53.225Z,101043.47
2022-12-26T23:35:22.632Z,101043.47
2022-12-26T23:37:50.598Z,101043.50
2022-12-26T23:40:20.505Z,101039.66
2022-12-26T23:42:47.763Z,101038.56
2022-12-26T23:45:16.208Z,101034.47
2022-12-26T23:47:45.712Z,101039.41
2022-12-26T23:50:15.793Z,101042.09
2022-12-26T23:52:43.837Z,101045.44
2022-12-26T23:55:11.749Z,101047.94
2022-12-26T23:57:38.891Z,101048.34
